sensor_id;sensor_type;location;lat;lon;timestamp;P1;durP1;ratioP1;P2;durP2;ratioP2
82296;SDS011;71899;51.992;8.648;2023-11-19T00:01:45;3.55;;;3.22;;
82296;SDS011;71899;51.992;8.648;2023-11-19T00:04:12;5.15;;;3.65;;
82296;SDS011;71899;51.992;8.648;2023-11-19T00:06:37;4.85;;;3.72;;
82296;SDS011;71899;51.992;8.648;2023-11-19T00:09:03;2.88;;;2.55;;
82296;SDS011;71899;51.992;8.648;2023-11-19T00:11:29;3.28;;;2.65;;
82296;SDS011;71899;51.992;8.648;2023-11-19T00:13:54;3.25;;;2.53;;
82296;SDS011;71899;51.992;8.648;2023-11-19T00:16:19;3.10;;;2.50;;
82296;SDS011;71899;51.992;8.648;2023-11-19T00:18:45;4.00;;;2.60;;
82296;SDS011;71899;51.992;8.648;2023-11-19T00:21:10;6.32;;;2.72;;
82296;SDS011;71899;51.992;8.648;2023-11-19T00:23:36;4.63;;;3.38;;
82296;SDS011;71899;51.992;8.648;2023-11-19T00:26:03;4.38;;;3.55;;
82296;SDS011;71899;51.992;8.648;2023-11-19T00:28:31;4.82;;;3.85;;
82296;SDS011;71899;51.992;8.648;2023-11-19T00:30:58;4.47;;;3.42;;
82296;SDS011;71899;51.992;8.648;2023-11-19T00:33:23;3.83;;;3.42;;
82296;SDS011;71899;51.992;8.648;2023-11-19T00:35:49;2.58;;;2.38;;
82296;SDS011;71899;51.992;8.648;2023-11-19T00:38:15;4.18;;;2.90;;
82296;SDS011;71899;51.992;8.648;2023-11-19T00:40:41;3.70;;;2.85;;
82296;SDS011;71899;51.992;8.648;2023-11-19T00:43:06;6.15;;;4.20;;
82296;SDS011;71899;51.992;8.648;2023-11-19T00:45:32;5.30;;;3.65;;
82296;SDS011;71899;51.992;8.648;2023-11-19T00:47:58;3.53;;;3.22;;
82296;SDS011;71899;51.992;8.648;2023-11-19T00:50:24;4.50;;;3.35;;
82296;SDS011;71899;51.992;8.648;2023-11-19T00:52:50;4.35;;;3.88;;
82296;SDS011;71899;51.992;8.648;2023-11-19T00:55:16;4.20;;;3.80;;
82296;SDS011;71899;51.992;8.648;2023-11-19T00:57:42;4.88;;;3.75;;
82296;SDS011;71899;51.992;8.648;2023-11-19T01:00:08;5.22;;;3.78;;
82296;SDS011;71899;51.992;8.648;2023-11-19T01:02:44;6.38;;;3.83;;
82296;SDS011;71899;51.992;8.648;2023-11-19T01:05:11;3.85;;;3.13;;
82296;SDS011;71899;51.992;8.648;2023-11-19T01:07:39;6.30;;;2.85;;
82296;SDS011;71899;51.992;8.648;2023-11-19T01:10:04;3.00;;;2.33;;
82296;SDS011;71899;51.992;8.648;2023-11-19T01:12:30;3.13;;;2.53;;
82296;SDS011;71899;51.992;8.648;2023-11-19T01:14:56;3.13;;;2.40;;
82296;SDS011;71899;51.992;8.648;2023-11-19T01:17:23;3.40;;;2.72;;
82296;SDS011;71899;51.992;8.648;2023-11-19T01:19:48;2.85;;;2.20;;
82296;SDS011;71899;51.992;8.648;2023-11-19T01:22:15;3.55;;;2.70;;
82296;SDS011;71899;51.992;8.648;2023-11-19T01:24:40;4.50;;;2.58;;
82296;SDS011;71899;51.992;8.648;2023-11-19T01:27:06;3.83;;;2.80;;
82296;SDS011;71899;51.992;8.648;2023-11-19T01:29:31;5.40;;;3.30;;
82296;SDS011;71899;51.992;8.648;2023-11-19T01:31:56;5.80;;;4.25;;
82296;SDS011;71899;51.992;8.648;2023-11-19T01:34:22;5.63;;;4.03;;
82296;SDS011;71899;51.992;8.648;2023-11-19T01:36:47;4.35;;;3.67;;
82296;SDS011;71899;51.992;8.648;2023-11-19T01:39:14;7.13;;;4.22;;
82296;SDS011;71899;51.992;8.648;2023-11-19T01:41:41;5.55;;;4.30;;
82296;SDS011;71899;51.992;8.648;2023-11-19T01:44:07;7.63;;;5.20;;
82296;SDS011;71899;51.992;8.648;2023-11-19T01:46:32;6.13;;;4.95;;
82296;SDS011;71899;51.992;8.648;2023-11-19T01:48:58;8.60;;;5.07;;
82296;SDS011;71899;51.992;8.648;2023-11-19T01:51:24;6.55;;;4.78;;
82296;SDS011;71899;51.992;8.648;2023-11-19T01:53:50;7.07;;;4.75;;
82296;SDS011;71899;51.992;8.648;2023-11-19T01:56:16;7.13;;;4.93;;
82296;SDS011;71899;51.992;8.648;2023-11-19T01:58:42;5.82;;;4.15;;
82296;SDS011;71899;51.992;8.648;2023-11-19T02:01:09;4.18;;;3.33;;
82296;SDS011;71899;51.992;8.648;2023-11-19T02:03:36;3.95;;;3.20;;
82296;SDS011;71899;51.992;8.648;2023-11-19T02:06:02;5.40;;;3.50;;
82296;SDS011;71899;51.992;8.648;2023-11-19T02:08:29;4.57;;;3.30;;
82296;SDS011;71899;51.992;8.648;2023-11-19T02:10:54;3.75;;;2.90;;
82296;SDS011;71899;51.992;8.648;2023-11-19T02:13:23;4.18;;;3.38;;
82296;SDS011;71899;51.992;8.648;2023-11-19T02:15:50;4.47;;;3.55;;
82296;SDS011;71899;51.992;8.648;2023-11-19T02:18:19;6.40;;;3.70;;
82296;SDS011;71899;51.992;8.648;2023-11-19T02:20:54;4.00;;;3.13;;
82296;SDS011;71899;51.992;8.648;2023-11-19T02:23:20;3.90;;;3.35;;
82296;SDS011;71899;51.992;8.648;2023-11-19T02:28:50;6.03;;;4.45;;
82296;SDS011;71899;51.992;8.648;2023-11-19T02:31:15;6.22;;;4.68;;
82296;SDS011;71899;51.992;8.648;2023-11-19T02:33:41;8.68;;;5.25;;
82296;SDS011;71899;51.992;8.648;2023-11-19T02:36:07;6.90;;;4.72;;
82296;SDS011;71899;51.992;8.648;2023-11-19T02:38:33;7.18;;;5.15;;
82296;SDS011;71899;51.992;8.648;2023-11-19T02:41:00;7.93;;;5.00;;
82296;SDS011;71899;51.992;8.648;2023-11-19T02:43:29;8.23;;;5.57;;
82296;SDS011;71899;51.992;8.648;2023-11-19T02:45:56;8.05;;;6.20;;
82296;SDS011;71899;51.992;8.648;2023-11-19T02:48:22;12.27;;;7.82;;
82296;SDS011;71899;51.992;8.648;2023-11-19T02:50:48;15.82;;;8.85;;
82296;SDS011;71899;51.992;8.648;2023-11-19T02:53:13;11.65;;;7.70;;
82296;SDS011;71899;51.992;8.648;2023-11-19T02:55:39;13.05;;;7.80;;
82296;SDS011;71899;51.992;8.648;2023-11-19T02:58:06;11.98;;;8.75;;
82296;SDS011;71899;51.992;8.648;2023-11-19T03:00:39;15.25;;;9.95;;
82296;SDS011;71899;51.992;8.648;2023-11-19T03:03:12;13.48;;;8.23;;
82296;SDS011;71899;51.992;8.648;2023-11-19T03:05:48;12.45;;;8.48;;
82296;SDS011;71899;51.992;8.648;2023-11-19T03:08:16;18.95;;;10.90;;
82296;SDS011;71899;51.992;8.648;2023-11-19T03:10:42;21.23;;;10.63;;
82296;SDS011;71899;51.992;8.648;2023-11-19T03:13:11;18.67;;;12.25;;
82296;SDS011;71899;51.992;8.648;2023-11-19T03:15:42;29.15;;;11.23;;
82296;SDS011;71899;51.992;8.648;2023-11-19T03:18:08;22.38;;;12.88;;
82296;SDS011;71899;51.992;8.648;2023-11-19T03:20:34;21.65;;;11.75;;
82296;SDS011;71899;51.992;8.648;2023-11-19T03:22:59;21.73;;;13.30;;
82296;SDS011;71899;51.992;8.648;2023-11-19T03:25:28;23.98;;;14.25;;
82296;SDS011;71899;51.992;8.648;2023-11-19T03:27:58;26.38;;;14.68;;
82296;SDS011;71899;51.992;8.648;2023-11-19T03:30:24;28.67;;;14.60;;
82296;SDS011;71899;51.992;8.648;2023-11-19T03:32:50;31.27;;;14.77;;
82296;SDS011;71899;51.992;8.648;2023-11-19T03:35:15;26.38;;;14.32;;
82296;SDS011;71899;51.992;8.648;2023-11-19T03:37:41;31.20;;;17.45;;
82296;SDS011;71899;51.992;8.648;2023-11-19T03:40:06;28.25;;;16.67;;
82296;SDS011;71899;51.992;8.648;2023-11-19T03:42:32;26.92;;;15.82;;
82296;SDS011;71899;51.992;8.648;2023-11-19T03:44:58;30.77;;;16.77;;
82296;SDS011;71899;51.992;8.648;2023-11-19T03:47:24;27.58;;;15.18;;
82296;SDS011;71899;51.992;8.648;2023-11-19T03:49:49;31.88;;;16.08;;
82296;SDS011;71899;51.992;8.648;2023-11-19T03:52:15;29.00;;;14.73;;
82296;SDS011;71899;51.992;8.648;2023-11-19T03:54:42;27.58;;;15.30;;
82296;SDS011;71899;51.992;8.648;2023-11-19T03:57:07;26.88;;;15.27;;
82296;SDS011;71899;51.992;8.648;2023-11-19T03:59:36;26.17;;;14.80;;
82296;SDS011;71899;51.992;8.648;2023-11-19T04:02:01;25.17;;;13.60;;
82296;SDS011;71899;51.992;8.648;2023-11-19T04:04:28;23.70;;;14.40;;
82296;SDS011;71899;51.992;8.648;2023-11-19T04:06:54;27.08;;;14.35;;
82296;SDS011;71899;51.992;8.648;2023-11-19T04:09:20;24.63;;;13.88;;
82296;SDS011;71899;51.992;8.648;2023-11-19T04:11:46;24.33;;;13.75;;
82296;SDS011;71899;51.992;8.648;2023-11-19T04:14:12;33.13;;;14.93;;
82296;SDS011;71899;51.992;8.648;2023-11-19T04:16:38;20.77;;;14.00;;
82296;SDS011;71899;51.992;8.648;2023-11-19T04:19:04;29.00;;;14.05;;
82296;SDS011;71899;51.992;8.648;2023-11-19T04:21:30;25.92;;;13.98;;
82296;SDS011;71899;51.992;8.648;2023-11-19T04:23:57;23.17;;;15.20;;
82296;SDS011;71899;51.992;8.648;2023-11-19T04:26:22;26.38;;;15.15;;
82296;SDS011;71899;51.992;8.648;2023-11-19T04:28:47;26.35;;;14.73;;
82296;SDS011;71899;51.992;8.648;2023-11-19T04:31:14;26.20;;;14.98;;
82296;SDS011;71899;51.992;8.648;2023-11-19T04:33:41;27.83;;;13.90;;
82296;SDS011;71899;51.992;8.648;2023-11-19T04:36:07;23.13;;;13.57;;
82296;SDS011;71899;51.992;8.648;2023-11-19T04:38:33;23.08;;;13.38;;
82296;SDS011;71899;51.992;8.648;2023-11-19T04:40:58;25.77;;;14.40;;
82296;SDS011;71899;51.992;8.648;2023-11-19T04:43:23;26.08;;;14.50;;
82296;SDS011;71899;51.992;8.648;2023-11-19T04:45:49;34.08;;;15.10;;
82296;SDS011;71899;51.992;8.648;2023-11-19T04:48:14;24.80;;;12.55;;
82296;SDS011;71899;51.992;8.648;2023-11-19T04:50:40;24.83;;;12.52;;
82296;SDS011;71899;51.992;8.648;2023-11-19T04:53:05;29.55;;;13.82;;
82296;SDS011;71899;51.992;8.648;2023-11-19T04:55:30;20.92;;;11.05;;
82296;SDS011;71899;51.992;8.648;2023-11-19T04:57:56;31.02;;;11.13;;
82296;SDS011;71899;51.992;8.648;2023-11-19T05:00:21;22.73;;;10.15;;
82296;SDS011;71899;51.992;8.648;2023-11-19T05:02:47;21.20;;;10.10;;
82296;SDS011;71899;51.992;8.648;2023-11-19T05:05:12;21.05;;;8.82;;
82296;SDS011;71899;51.992;8.648;2023-11-19T05:07:38;20.90;;;9.35;;
82296;SDS011;71899;51.992;8.648;2023-11-19T05:10:03;24.20;;;9.85;;
82296;SDS011;71899;51.992;8.648;2023-11-19T05:12:29;35.53;;;10.65;;
82296;SDS011;71899;51.992;8.648;2023-11-19T05:14:54;23.05;;;10.23;;
82296;SDS011;71899;51.992;8.648;2023-11-19T05:17:20;26.33;;;10.15;;
82296;SDS011;71899;51.992;8.648;2023-11-19T05:19:46;28.42;;;9.40;;
82296;SDS011;71899;51.992;8.648;2023-11-19T05:22:12;44.78;;;10.63;;
82296;SDS011;71899;51.992;8.648;2023-11-19T05:24:38;27.40;;;9.13;;
82296;SDS011;71899;51.992;8.648;2023-11-19T05:27:04;24.70;;;8.68;;
82296;SDS011;71899;51.992;8.648;2023-11-19T05:29:30;27.55;;;9.05;;
82296;SDS011;71899;51.992;8.648;2023-11-19T05:31:55;27.80;;;10.27;;
82296;SDS011;71899;51.992;8.648;2023-11-19T05:34:20;31.35;;;12.38;;
82296;SDS011;71899;51.992;8.648;2023-11-19T05:36:46;27.95;;;9.50;;
82296;SDS011;71899;51.992;8.648;2023-11-19T05:39:12;25.60;;;8.95;;
82296;SDS011;71899;51.992;8.648;2023-11-19T05:41:37;29.55;;;9.20;;
82296;SDS011;71899;51.992;8.648;2023-11-19T05:44:02;22.42;;;7.72;;
82296;SDS011;71899;51.992;8.648;2023-11-19T05:46:28;22.98;;;7.22;;
82296;SDS011;71899;51.992;8.648;2023-11-19T05:48:53;28.70;;;7.30;;
82296;SDS011;71899;51.992;8.648;2023-11-19T05:51:19;25.85;;;7.95;;
82296;SDS011;71899;51.992;8.648;2023-11-19T05:53:44;18.23;;;7.80;;
82296;SDS011;71899;51.992;8.648;2023-11-19T05:56:15;31.90;;;7.68;;
82296;SDS011;71899;51.992;8.648;2023-11-19T05:58:41;26.85;;;8.82;;
82296;SDS011;71899;51.992;8.648;2023-11-19T06:01:06;14.43;;;6.78;;
82296;SDS011;71899;51.992;8.648;2023-11-19T06:03:32;31.52;;;7.85;;
82296;SDS011;71899;51.992;8.648;2023-11-19T06:05:58;21.48;;;7.70;;
82296;SDS011;71899;51.992;8.648;2023-11-19T06:08:23;27.60;;;7.13;;
82296;SDS011;71899;51.992;8.648;2023-11-19T06:10:49;12.05;;;6.75;;
82296;SDS011;71899;51.992;8.648;2023-11-19T06:13:16;27.88;;;7.63;;
82296;SDS011;71899;51.992;8.648;2023-11-19T06:15:41;23.98;;;7.05;;
82296;SDS011;71899;51.992;8.648;2023-11-19T06:18:07;30.92;;;7.50;;
82296;SDS011;71899;51.992;8.648;2023-11-19T06:20:33;24.45;;;7.40;;
82296;SDS011;71899;51.992;8.648;2023-11-19T06:22:59;23.38;;;6.18;;
82296;SDS011;71899;51.992;8.648;2023-11-19T06:25:25;19.17;;;7.18;;
82296;SDS011;71899;51.992;8.648;2023-11-19T06:27:51;24.92;;;7.97;;
82296;SDS011;71899;51.992;8.648;2023-11-19T06:30:17;19.52;;;7.03;;
82296;SDS011;71899;51.992;8.648;2023-11-19T06:32:43;19.67;;;6.47;;
82296;SDS011;71899;51.992;8.648;2023-11-19T06:35:09;26.75;;;6.82;;
82296;SDS011;71899;51.992;8.648;2023-11-19T06:37:39;27.55;;;10.23;;
82296;SDS011;71899;51.992;8.648;2023-11-19T06:40:05;26.15;;;7.82;;
82296;SDS011;71899;51.992;8.648;2023-11-19T06:42:32;27.40;;;7.72;;
82296;SDS011;71899;51.992;8.648;2023-11-19T06:44:58;32.10;;;7.97;;
82296;SDS011;71899;51.992;8.648;2023-11-19T06:47:26;25.52;;;7.78;;
82296;SDS011;71899;51.992;8.648;2023-11-19T06:49:53;31.13;;;7.53;;
82296;SDS011;71899;51.992;8.648;2023-11-19T06:52:18;23.23;;;6.53;;
82296;SDS011;71899;51.992;8.648;2023-11-19T06:54:44;29.40;;;8.23;;
82296;SDS011;71899;51.992;8.648;2023-11-19T06:57:13;27.73;;;6.78;;
82296;SDS011;71899;51.992;8.648;2023-11-19T06:59:38;32.53;;;8.13;;
82296;SDS011;71899;51.992;8.648;2023-11-19T07:02:04;35.65;;;7.00;;
82296;SDS011;71899;51.992;8.648;2023-11-19T07:04:30;31.05;;;7.55;;
82296;SDS011;71899;51.992;8.648;2023-11-19T07:06:56;24.98;;;4.70;;
82296;SDS011;71899;51.992;8.648;2023-11-19T07:09:22;35.83;;;7.57;;
82296;SDS011;71899;51.992;8.648;2023-11-19T07:11:48;25.42;;;5.28;;
82296;SDS011;71899;51.992;8.648;2023-11-19T07:14:15;25.10;;;6.50;;
82296;SDS011;71899;51.992;8.648;2023-11-19T07:16:41;26.55;;;7.97;;
82296;SDS011;71899;51.992;8.648;2023-11-19T07:19:06;23.95;;;6.82;;
82296;SDS011;71899;51.992;8.648;2023-11-19T07:21:32;29.52;;;6.50;;
82296;SDS011;71899;51.992;8.648;2023-11-19T07:24:02;31.77;;;7.38;;
82296;SDS011;71899;51.992;8.648;2023-11-19T07:26:28;21.13;;;5.15;;
82296;SDS011;71899;51.992;8.648;2023-11-19T07:28:53;32.55;;;7.82;;
82296;SDS011;71899;51.992;8.648;2023-11-19T07:31:20;32.92;;;8.13;;
82296;SDS011;71899;51.992;8.648;2023-11-19T07:33:46;25.45;;;6.47;;
82296;SDS011;71899;51.992;8.648;2023-11-19T07:36:12;31.27;;;6.40;;
82296;SDS011;71899;51.992;8.648;2023-11-19T07:38:38;29.85;;;5.80;;
82296;SDS011;71899;51.992;8.648;2023-11-19T07:41:04;31.27;;;6.47;;
82296;SDS011;71899;51.992;8.648;2023-11-19T07:43:30;31.25;;;5.97;;
82296;SDS011;71899;51.992;8.648;2023-11-19T07:45:56;32.70;;;8.27;;
82296;SDS011;71899;51.992;8.648;2023-11-19T07:48:24;35.30;;;6.70;;
82296;SDS011;71899;51.992;8.648;2023-11-19T07:50:49;24.90;;;5.18;;
82296;SDS011;71899;51.992;8.648;2023-11-19T07:53:18;29.30;;;4.93;;
82296;SDS011;71899;51.992;8.648;2023-11-19T07:55:44;43.72;;;8.00;;
82296;SDS011;71899;51.992;8.648;2023-11-19T07:58:10;26.70;;;4.90;;
82296;SDS011;71899;51.992;8.648;2023-11-19T08:00:36;24.60;;;7.47;;
82296;SDS011;71899;51.992;8.648;2023-11-19T08:03:02;31.80;;;6.03;;
82296;SDS011;71899;51.992;8.648;2023-11-19T08:05:31;31.05;;;5.72;;
82296;SDS011;71899;51.992;8.648;2023-11-19T08:07:56;28.55;;;7.22;;
82296;SDS011;71899;51.992;8.648;2023-11-19T08:10:22;24.58;;;5.38;;
82296;SDS011;71899;51.992;8.648;2023-11-19T08:12:47;28.15;;;6.25;;
82296;SDS011;71899;51.992;8.648;2023-11-19T08:15:13;23.92;;;5.78;;
82296;SDS011;71899;51.992;8.648;2023-11-19T08:17:39;24.85;;;4.60;;
82296;SDS011;71899;51.992;8.648;2023-11-19T08:20:04;25.30;;;5.13;;
82296;SDS011;71899;51.992;8.648;2023-11-19T08:22:35;24.02;;;6.85;;
82296;SDS011;71899;51.992;8.648;2023-11-19T08:25:06;24.25;;;5.63;;
82296;SDS011;71899;51.992;8.648;2023-11-19T08:27:32;25.63;;;4.78;;
82296;SDS011;71899;51.992;8.648;2023-11-19T08:29:57;39.53;;;6.20;;
82296;SDS011;71899;51.992;8.648;2023-11-19T08:32:26;24.08;;;6.22;;
82296;SDS011;71899;51.992;8.648;2023-11-19T08:34:52;31.10;;;5.53;;
82296;SDS011;71899;51.992;8.648;2023-11-19T08:37:17;30.63;;;7.82;;
82296;SDS011;71899;51.992;8.648;2023-11-19T08:39:49;23.13;;;5.68;;
82296;SDS011;71899;51.992;8.648;2023-11-19T08:42:15;22.48;;;6.50;;
82296;SDS011;71899;51.992;8.648;2023-11-19T08:44:41;32.03;;;7.10;;
82296;SDS011;71899;51.992;8.648;2023-11-19T08:47:08;20.83;;;4.30;;
82296;SDS011;71899;51.992;8.648;2023-11-19T08:49:34;26.75;;;5.55;;
82296;SDS011;71899;51.992;8.648;2023-11-19T08:52:00;19.42;;;4.38;;
82296;SDS011;71899;51.992;8.648;2023-11-19T08:54:27;25.50;;;5.75;;
82296;SDS011;71899;51.992;8.648;2023-11-19T08:56:52;29.52;;;7.53;;
82296;SDS011;71899;51.992;8.648;2023-11-19T08:59:18;18.77;;;4.60;;
82296;SDS011;71899;51.992;8.648;2023-11-19T09:01:44;20.83;;;5.50;;
82296;SDS011;71899;51.992;8.648;2023-11-19T09:04:10;26.40;;;6.20;;
82296;SDS011;71899;51.992;8.648;2023-11-19T09:06:36;28.50;;;6.20;;
82296;SDS011;71899;51.992;8.648;2023-11-19T09:09:01;30.17;;;5.50;;
82296;SDS011;71899;51.992;8.648;2023-11-19T09:11:31;24.40;;;5.63;;
82296;SDS011;71899;51.992;8.648;2023-11-19T09:13:56;21.38;;;6.72;;
82296;SDS011;71899;51.992;8.648;2023-11-19T09:16:22;25.35;;;5.68;;
82296;SDS011;71899;51.992;8.648;2023-11-19T09:18:47;34.90;;;6.35;;
82296;SDS011;71899;51.992;8.648;2023-11-19T09:21:13;35.00;;;8.90;;
82296;SDS011;71899;51.992;8.648;2023-11-19T09:23:38;29.63;;;6.07;;
82296;SDS011;71899;51.992;8.648;2023-11-19T09:26:08;25.95;;;6.05;;
82296;SDS011;71899;51.992;8.648;2023-11-19T09:28:33;24.92;;;6.93;;
82296;SDS011;71899;51.992;8.648;2023-11-19T09:30:59;18.02;;;6.22;;
82296;SDS011;71899;51.992;8.648;2023-11-19T09:33:29;21.90;;;5.20;;
82296;SDS011;71899;51.992;8.648;2023-11-19T09:35:55;22.83;;;7.30;;
82296;SDS011;71899;51.992;8.648;2023-11-19T09:38:20;16.25;;;5.05;;
82296;SDS011;71899;51.992;8.648;2023-11-19T09:40:46;24.80;;;5.80;;
82296;SDS011;71899;51.992;8.648;2023-11-19T09:43:12;24.95;;;6.18;;
82296;SDS011;71899;51.992;8.648;2023-11-19T09:45:47;21.67;;;7.13;;
82296;SDS011;71899;51.992;8.648;2023-11-19T09:48:17;23.73;;;4.78;;
82296;SDS011;71899;51.992;8.648;2023-11-19T09:50:44;23.98;;;4.95;;
82296;SDS011;71899;51.992;8.648;2023-11-19T09:53:12;27.92;;;6.45;;
82296;SDS011;71899;51.992;8.648;2023-11-19T09:55:37;26.60;;;5.05;;
82296;SDS011;71899;51.992;8.648;2023-11-19T09:58:03;28.10;;;5.22;;
82296;SDS011;71899;51.992;8.648;2023-11-19T10:00:28;26.02;;;5.40;;
82296;SDS011;71899;51.992;8.648;2023-11-19T10:02:55;25.58;;;5.30;;
82296;SDS011;71899;51.992;8.648;2023-11-19T10:05:22;27.60;;;5.78;;
82296;SDS011;71899;51.992;8.648;2023-11-19T10:07:49;23.02;;;5.85;;
82296;SDS011;71899;51.992;8.648;2023-11-19T10:10:15;26.35;;;5.50;;
82296;SDS011;71899;51.992;8.648;2023-11-19T10:12:47;19.60;;;4.88;;
82296;SDS011;71899;51.992;8.648;2023-11-19T10:15:33;27.75;;;5.28;;
82296;SDS011;71899;51.992;8.648;2023-11-19T10:18:02;26.10;;;7.60;;
82296;SDS011;71899;51.992;8.648;2023-11-19T10:20:27;31.02;;;5.32;;
82296;SDS011;71899;51.992;8.648;2023-11-19T10:22:53;23.35;;;5.80;;
82296;SDS011;71899;51.992;8.648;2023-11-19T10:25:27;24.20;;;6.93;;
82296;SDS011;71899;51.992;8.648;2023-11-19T10:27:53;21.70;;;5.75;;
82296;SDS011;71899;51.992;8.648;2023-11-19T10:30:21;20.75;;;6.03;;
82296;SDS011;71899;51.992;8.648;2023-11-19T10:35:32;29.23;;;6.10;;
82296;SDS011;71899;51.992;8.648;2023-11-19T10:37:59;22.83;;;5.40;;
82296;SDS011;71899;51.992;8.648;2023-11-19T10:40:38;30.50;;;5.45;;
82296;SDS011;71899;51.992;8.648;2023-11-19T10:43:08;30.40;;;6.43;;
82296;SDS011;71899;51.992;8.648;2023-11-19T10:45:34;28.52;;;6.50;;
82296;SDS011;71899;51.992;8.648;2023-11-19T10:48:01;20.95;;;5.47;;
82296;SDS011;71899;51.992;8.648;2023-11-19T10:50:35;20.70;;;5.85;;
82296;SDS011;71899;51.992;8.648;2023-11-19T10:53:02;28.70;;;4.90;;
82296;SDS011;71899;51.992;8.648;2023-11-19T10:55:30;31.95;;;5.93;;
82296;SDS011;71899;51.992;8.648;2023-11-19T10:58:04;25.88;;;5.32;;
82296;SDS011;71899;51.992;8.648;2023-11-19T11:00:38;24.25;;;5.78;;
82296;SDS011;71899;51.992;8.648;2023-11-19T11:03:11;34.67;;;6.13;;
82296;SDS011;71899;51.992;8.648;2023-11-19T11:05:47;20.45;;;5.95;;
82296;SDS011;71899;51.992;8.648;2023-11-19T11:08:13;23.65;;;7.05;;
82296;SDS011;71899;51.992;8.648;2023-11-19T11:10:42;23.42;;;5.15;;
82296;SDS011;71899;51.992;8.648;2023-11-19T11:13:09;25.13;;;5.65;;
82296;SDS011;71899;51.992;8.648;2023-11-19T11:15:37;29.27;;;5.80;;
82296;SDS011;71899;51.992;8.648;2023-11-19T11:18:02;38.28;;;6.07;;
82296;SDS011;71899;51.992;8.648;2023-11-19T11:20:29;35.30;;;8.48;;
82296;SDS011;71899;51.992;8.648;2023-11-19T11:23:16;27.80;;;5.85;;
82296;SDS011;71899;51.992;8.648;2023-11-19T11:26:31;26.60;;;4.80;;
82296;SDS011;71899;51.992;8.648;2023-11-19T11:36:34;31.77;;;6.77;;
82296;SDS011;71899;51.992;8.648;2023-11-19T11:39:08;34.58;;;6.53;;
82296;SDS011;71899;51.992;8.648;2023-11-19T11:41:34;38.17;;;7.18;;
82296;SDS011;71899;51.992;8.648;2023-11-19T11:43:59;39.63;;;5.90;;
82296;SDS011;71899;51.992;8.648;2023-11-19T11:48:57;27.00;;;5.03;;
82296;SDS011;71899;51.992;8.648;2023-11-19T11:54:11;30.70;;;6.35;;
82296;SDS011;71899;51.992;8.648;2023-11-19T11:57:07;21.60;;;6.00;;
82296;SDS011;71899;51.992;8.648;2023-11-19T12:02:16;33.35;;;5.88;;
82296;SDS011;71899;51.992;8.648;2023-11-19T12:04:46;35.53;;;5.97;;
82296;SDS011;71899;51.992;8.648;2023-11-19T12:07:14;32.88;;;6.53;;
82296;SDS011;71899;51.992;8.648;2023-11-19T12:09:42;27.17;;;6.15;;
82296;SDS011;71899;51.992;8.648;2023-11-19T12:20:07;38.03;;;4.90;;
82296;SDS011;71899;51.992;8.648;2023-11-19T12:22:39;31.27;;;6.55;;
82296;SDS011;71899;51.992;8.648;2023-11-19T12:25:06;24.67;;;5.40;;
82296;SDS011;71899;51.992;8.648;2023-11-19T12:27:40;23.88;;;6.03;;
82296;SDS011;71899;51.992;8.648;2023-11-19T12:30:07;32.30;;;5.25;;
82296;SDS011;71899;51.992;8.648;2023-11-19T12:32:43;22.45;;;5.60;;
82296;SDS011;71899;51.992;8.648;2023-11-19T12:35:09;34.95;;;6.18;;
82296;SDS011;71899;51.992;8.648;2023-11-19T12:37:41;21.23;;;4.68;;
82296;SDS011;71899;51.992;8.648;2023-11-19T12:40:15;34.47;;;5.50;;
82296;SDS011;71899;51.992;8.648;2023-11-19T12:42:54;24.88;;;6.10;;
82296;SDS011;71899;51.992;8.648;2023-11-19T12:47:47;22.50;;;5.80;;
82296;SDS011;71899;51.992;8.648;2023-11-19T12:50:13;27.65;;;5.20;;
82296;SDS011;71899;51.992;8.648;2023-11-19T12:52:40;22.83;;;5.75;;
82296;SDS011;71899;51.992;8.648;2023-11-19T12:55:27;22.83;;;5.00;;
82296;SDS011;71899;51.992;8.648;2023-11-19T12:57:55;27.48;;;6.63;;
82296;SDS011;71899;51.992;8.648;2023-11-19T13:00:21;26.48;;;4.68;;
82296;SDS011;71899;51.992;8.648;2023-11-19T13:02:52;31.00;;;7.13;;
82296;SDS011;71899;51.992;8.648;2023-11-19T13:07:47;26.25;;;4.30;;
82296;SDS011;71899;51.992;8.648;2023-11-19T13:10:12;24.27;;;5.68;;
82296;SDS011;71899;51.992;8.648;2023-11-19T13:12:38;26.25;;;6.20;;
82296;SDS011;71899;51.992;8.648;2023-11-19T13:15:04;29.90;;;7.03;;
82296;SDS011;71899;51.992;8.648;2023-11-19T13:17:30;17.67;;;4.22;;
82296;SDS011;71899;51.992;8.648;2023-11-19T13:19:56;26.55;;;6.03;;
82296;SDS011;71899;51.992;8.648;2023-11-19T13:22:22;34.33;;;5.97;;
82296;SDS011;71899;51.992;8.648;2023-11-19T13:24:47;30.42;;;4.45;;
82296;SDS011;71899;51.992;8.648;2023-11-19T13:27:13;29.50;;;6.25;;
82296;SDS011;71899;51.992;8.648;2023-11-19T13:29:38;22.20;;;4.68;;
82296;SDS011;71899;51.992;8.648;2023-11-19T13:32:04;25.30;;;6.45;;
82296;SDS011;71899;51.992;8.648;2023-11-19T13:34:30;22.80;;;5.05;;
82296;SDS011;71899;51.992;8.648;2023-11-19T13:36:56;23.13;;;5.45;;
82296;SDS011;71899;51.992;8.648;2023-11-19T13:39:21;18.02;;;5.50;;
82296;SDS011;71899;51.992;8.648;2023-11-19T13:41:48;23.08;;;4.88;;
82296;SDS011;71899;51.992;8.648;2023-11-19T13:44:15;30.42;;;7.20;;
82296;SDS011;71899;51.992;8.648;2023-11-19T13:46:43;22.25;;;4.45;;
82296;SDS011;71899;51.992;8.648;2023-11-19T13:49:09;27.88;;;6.97;;
82296;SDS011;71899;51.992;8.648;2023-11-19T13:51:35;17.40;;;4.95;;
82296;SDS011;71899;51.992;8.648;2023-11-19T13:54:00;24.10;;;4.57;;
82296;SDS011;71899;51.992;8.648;2023-11-19T13:56:26;22.90;;;5.72;;
82296;SDS011;71899;51.992;8.648;2023-11-19T13:58:51;23.25;;;3.72;;
82296;SDS011;71899;51.992;8.648;2023-11-19T14:01:18;14.07;;;4.13;;
82296;SDS011;71899;51.992;8.648;2023-11-19T14:03:43;20.83;;;5.32;;
82296;SDS011;71899;51.992;8.648;2023-11-19T14:06:09;30.13;;;4.80;;
82296;SDS011;71899;51.992;8.648;2023-11-19T14:08:34;28.95;;;6.10;;
82296;SDS011;71899;51.992;8.648;2023-11-19T14:10:59;18.13;;;4.32;;
82296;SDS011;71899;51.992;8.648;2023-11-19T14:13:25;25.65;;;4.93;;
82296;SDS011;71899;51.992;8.648;2023-11-19T14:15:51;17.52;;;4.57;;
82296;SDS011;71899;51.992;8.648;2023-11-19T14:18:16;23.80;;;4.82;;
82296;SDS011;71899;51.992;8.648;2023-11-19T14:20:42;18.27;;;4.95;;
82296;SDS011;71899;51.992;8.648;2023-11-19T14:23:08;23.10;;;4.53;;
82296;SDS011;71899;51.992;8.648;2023-11-19T14:25:34;23.30;;;4.47;;
82296;SDS011;71899;51.992;8.648;2023-11-19T14:27:59;20.50;;;5.25;;
82296;SDS011;71899;51.992;8.648;2023-11-19T14:30:24;27.67;;;5.47;;
82296;SDS011;71899;51.992;8.648;2023-11-19T14:32:50;19.60;;;4.35;;
82296;SDS011;71899;51.992;8.648;2023-11-19T14:35:15;20.58;;;4.20;;
82296;SDS011;71899;51.992;8.648;2023-11-19T14:37:41;24.73;;;4.78;;
82296;SDS011;71899;51.992;8.648;2023-11-19T14:40:06;25.25;;;5.10;;
82296;SDS011;71899;51.992;8.648;2023-11-19T14:42:36;21.38;;;5.95;;
82296;SDS011;71899;51.992;8.648;2023-11-19T14:45:02;17.60;;;3.25;;
82296;SDS011;71899;51.992;8.648;2023-11-19T14:47:27;15.15;;;3.90;;
82296;SDS011;71899;51.992;8.648;2023-11-19T14:49:54;22.65;;;4.68;;
82296;SDS011;71899;51.992;8.648;2023-11-19T14:52:19;20.27;;;3.47;;
82296;SDS011;71899;51.992;8.648;2023-11-19T14:54:45;16.23;;;5.13;;
82296;SDS011;71899;51.992;8.648;2023-11-19T14:57:10;25.40;;;4.07;;
82296;SDS011;71899;51.992;8.648;2023-11-19T14:59:36;15.75;;;5.47;;
82296;SDS011;71899;51.992;8.648;2023-11-19T15:02:02;18.55;;;3.40;;
82296;SDS011;71899;51.992;8.648;2023-11-19T15:04:28;18.08;;;4.57;;
82296;SDS011;71899;51.992;8.648;2023-11-19T15:06:57;20.05;;;3.55;;
82296;SDS011;71899;51.992;8.648;2023-11-19T15:09:24;20.23;;;4.38;;